createdAt,value
2023-11-29T00:01:51.581Z,-6.32
2023-11-29T00:04:19.975Z,-6.23
2023-11-29T00:06:47.985Z,-5.90
2023-11-29T00:09:15.966Z,-6.00
2023-11-29T00:11:44.305Z,-6.10
2023-11-29T00:14:12.410Z,-6.07
2023-11-29T00:16:43.299Z,-5.90
2023-11-29T00:19:14.476Z,-5.82
2023-11-29T00:21:43.147Z,-5.79
2023-11-29T00:24:11.600Z,-5.84
2023-11-29T00:26:39.582Z,-5.39
2023-11-29T00:29:07.595Z,-5.44
2023-11-29T00:31:36.061Z,-5.58
2023-11-29T00:34:05.501Z,-5.49
2023-11-29T00:36:34.076Z,-5.13
2023-11-29T00:39:02.718Z,-5.10
2023-11-29T00:41:33.324Z,-4.68
2023-11-29T00:44:01.246Z,-4.89
2023-11-29T00:46:29.890Z,-4.89
2023-11-29T00:48:57.865Z,-4.95
2023-11-29T00:51:25.818Z,-5.05
2023-11-29T00:53:54.870Z,-4.86
2023-11-29T00:56:22.719Z,-4.66
2023-11-29T00:58:53.921Z,-4.98
2023-11-29T01:01:22.361Z,-5.17
2023-11-29T01:03:53.494Z,-5.34
2023-11-29T01:06:22.435Z,-5.24
2023-11-29T01:08:50.604Z,-5.16
2023-11-29T01:11:19.771Z,-5.36
2023-11-29T01:13:47.834Z,-5.47
2023-11-29T01:16:16.132Z,-5.48
2023-11-29T01:18:45.061Z,-5.54
2023-11-29T01:21:17.204Z,-5.58
2023-11-29T01:23:53.929Z,-5.53
2023-11-29T01:26:21.711Z,-5.54
2023-11-29T01:28:49.554Z,-5.54
2023-11-29T01:31:20.438Z,-5.52
2023-11-29T01:33:48.289Z,-5.60
2023-11-29T01:36:16.370Z,-5.54
2023-11-29T01:38:44.605Z,-5.53
2023-11-29T01:41:15.610Z,-5.25
2023-11-29T01:43:43.573Z,-5.46
2023-11-29T01:46:12.240Z,-5.51
2023-11-29T01:48:41.129Z,-5.59
2023-11-29T01:51:12.349Z,-5.58
2023-11-29T01:53:42.073Z,-5.58
2023-11-29T01:56:10.533Z,-5.54
2023-11-29T01:58:38.473Z,-5.30
2023-11-29T02:01:06.958Z,-5.20
2023-11-29T02:03:35.270Z,-4.85
2023-11-29T02:06:03.324Z,-4.35
2023-11-29T02:08:32.645Z,-4.39
2023-11-29T02:11:01.126Z,-3.76
2023-11-29T02:13:31.015Z,-4.31
2023-11-29T02:16:00.654Z,-4.42
2023-11-29T02:18:29.260Z,-4.14
2023-11-29T02:20:57.375Z,-3.80
2023-11-29T02:24:07.471Z,-4.12
2023-11-29T02:26:35.929Z,-4.33
2023-11-29T02:29:04.524Z,-4.76
2023-11-29T02:31:32.470Z,-4.35
2023-11-29T02:34:02.870Z,-4.89
2023-11-29T02:36:33.942Z,-4.86
2023-11-29T02:39:02.199Z,-4.38
2023-11-29T02:41:30.281Z,-4.26
2023-11-29T02:43:58.556Z,-4.33
2023-11-29T02:46:26.942Z,-4.31
2023-11-29T02:48:55.483Z,-4.68
2023-11-29T02:51:24.570Z,-4.34
2023-11-29T02:53:52.981Z,-4.20
2023-11-29T02:56:21.380Z,-4.76
2023-11-29T02:58:49.439Z,-4.93
2023-11-29T03:01:17.877Z,-4.86
2023-11-29T03:03:45.756Z,-4.47
2023-11-29T03:06:16.893Z,-4.83
2023-11-29T03:08:45.341Z,-4.79
2023-11-29T03:11:16.307Z,-4.92
2023-11-29T03:13:44.300Z,-4.65
2023-11-29T03:16:12.675Z,-3.96
2023-11-29T03:18:40.844Z,-4.11
2023-11-29T03:21:08.890Z,-4.25
2023-11-29T03:23:37.168Z,-4.02
2023-11-29T03:26:06.398Z,-3.87
2023-11-29T03:28:34.344Z,-4.52
2023-11-29T03:31:02.728Z,-4.16
2023-11-29T03:33:31.001Z,-3.74
2023-11-29T03:35:59.066Z,-3.94
2023-11-29T03:38:27.503Z,-3.75
2023-11-29T03:40:58.352Z,-4.25
2023-11-29T03:43:26.328Z,-4.09
2023-11-29T03:45:55.310Z,-4.15
2023-11-29T03:48:23.404Z,-3.86
2023-11-29T03:50:51.438Z,-4.13
2023-11-29T03:53:19.923Z,-4.14
2023-11-29T03:55:47.980Z,-3.87
2023-11-29T03:58:15.932Z,-3.84
2023-11-29T04:00:44.591Z,-3.94
2023-11-29T04:03:13.103Z,-3.89
2023-11-29T04:05:41.350Z,-4.09
2023-11-29T04:08:13.921Z,-4.14
2023-11-29T04:10:42.271Z,-4.01
2023-11-29T04:13:10.350Z,-3.95
2023-11-29T04:15:38.733Z,-4.27
2023-11-29T04:18:10.635Z,-4.41
2023-11-29T04:20:39.121Z,-4.34
2023-11-29T04:23:07.610Z,-4.14
2023-11-29T04:25:35.636Z,-4.18
2023-11-29T04:28:04.887Z,-4.34
2023-11-29T04:30:33.883Z,-4.75
2023-11-29T04:33:05.414Z,-4.33
2023-11-29T04:35:34.315Z,-4.13
2023-11-29T04:38:02.604Z,-3.56
2023-11-29T04:40:31.513Z,-3.56
2023-11-29T04:43:01.605Z,-3.50
2023-11-29T04:45:33.485Z,-3.57
2023-11-29T04:48:07.779Z,-3.60
2023-11-29T04:50:36.133Z,-3.58
2023-11-29T04:53:04.802Z,-3.58
2023-11-29T04:55:33.240Z,-3.68
2023-11-29T04:58:01.690Z,-3.61
2023-11-29T05:00:31.961Z,-3.57
2023-11-29T05:03:03.571Z,-3.57
2023-11-29T05:05:38.278Z,-3.61
2023-11-29T05:08:08.846Z,-3.61
2023-11-29T05:10:40.724Z,-3.62
2023-11-29T05:13:10.883Z,-3.67
2023-11-29T05:15:43.010Z,-3.71
2023-11-29T05:18:17.077Z,-3.70
2023-11-29T05:20:48.763Z,-3.72
2023-11-29T05:23:22.054Z,-3.75
2023-11-29T05:25:52.928Z,-3.81
2023-11-29T05:28:26.706Z,-3.88
2023-11-29T05:30:58.093Z,-3.77
2023-11-29T05:33:27.995Z,-3.79
2023-11-29T05:35:58.633Z,-3.87
2023-11-29T05:38:30.759Z,-3.95
2023-11-29T05:41:03.961Z,-3.83
2023-11-29T05:43:32.739Z,-3.79
2023-11-29T05:46:04.651Z,-3.76
2023-11-29T05:48:35.817Z,-3.78
2023-11-29T05:51:10.210Z,-3.86
2023-11-29T05:53:48.777Z,-3.89
2023-11-29T05:56:23.588Z,-3.89
2023-11-29T05:58:56.751Z,-3.92
2023-11-29T06:01:31.301Z,-3.99
2023-11-29T06:04:09.748Z,-3.97
2023-11-29T06:06:42.974Z,-4.00
2023-11-29T06:09:16.884Z,-3.86
2023-11-29T06:11:48.967Z,-3.92
2023-11-29T06:14:20.987Z,-3.85
2023-11-29T06:16:55.719Z,-3.86
2023-11-29T06:19:29.825Z,-3.83
2023-11-29T06:22:02.395Z,-3.96
2023-11-29T06:24:35.392Z,-3.87
2023-11-29T06:27:11.319Z,-3.90
2023-11-29T06:29:44.661Z,-4.07
2023-11-29T06:32:17.779Z,-3.97
2023-11-29T06:34:56.021Z,-4.01
2023-11-29T06:37:27.880Z,-4.03
2023-11-29T06:40:05.023Z,-4.02
2023-11-29T06:42:38.279Z,-4.18
2023-11-29T06:45:14.611Z,-3.93
2023-11-29T06:47:53.234Z,-3.92
2023-11-29T06:50:30.984Z,-3.89
2023-11-29T06:53:05.349Z,-4.10
2023-11-29T06:55:42.671Z,-4.01
2023-11-29T06:58:21.729Z,-4.03
2023-11-29T07:00:59.417Z,-4.17
2023-11-29T07:03:32.957Z,-4.00
2023-11-29T07:06:11.236Z,-3.91
2023-11-29T07:08:55.932Z,-4.05
2023-11-29T07:11:30.007Z,-3.93
2023-11-29T07:14:04.098Z,-4.21
2023-11-29T07:16:39.869Z,-4.52
2023-11-29T07:19:14.848Z,-4.20
2023-11-29T07:21:49.537Z,-4.50
2023-11-29T07:24:27.109Z,-4.09
2023-11-29T07:27:03.897Z,-4.45
2023-11-29T07:29:40.796Z,-4.35
2023-11-29T07:32:15.350Z,-4.11
2023-11-29T07:34:49.055Z,-4.32
2023-11-29T07:37:29.283Z,-4.11
2023-11-29T07:40:06.137Z,-4.13
2023-11-29T07:42:39.601Z,-4.08
2023-11-29T07:45:12.878Z,-4.24
2023-11-29T07:47:49.474Z,-4.14
2023-11-29T07:50:33.534Z,-3.90
2023-11-29T07:53:07.945Z,-3.89
2023-11-29T07:55:38.740Z,-3.77
2023-11-29T07:58:24.490Z,-4.00
2023-11-29T08:01:04.422Z,-3.84
2023-11-29T08:03:41.890Z,-3.76
2023-11-29T08:06:26.934Z,-3.88
2023-11-29T08:09:02.595Z,-3.65
2023-11-29T08:11:43.139Z,-3.79
2023-11-29T08:14:25.274Z,-3.72
2023-11-29T08:17:05.467Z,-3.66
2023-11-29T08:19:46.838Z,-3.60
2023-11-29T08:22:23.102Z,-3.65
2023-11-29T08:24:57.172Z,-3.60
2023-11-29T08:27:39.704Z,-3.60
2023-11-29T08:30:24.878Z,-3.65
2023-11-29T08:33:06.453Z,-3.50
2023-11-29T08:35:50.764Z,-3.53
2023-11-29T08:38:32.285Z,-3.45
2023-11-29T08:41:14.527Z,-3.46
2023-11-29T08:43:49.178Z,-3.44
2023-11-29T08:46:28.761Z,-3.43
2023-11-29T08:49:08.351Z,-3.43
2023-11-29T08:51:47.589Z,-3.55
2023-11-29T08:54:30.036Z,-3.57
2023-11-29T08:57:09.307Z,-3.39
2023-11-29T08:59:49.467Z,-3.42
2023-11-29T09:02:36.454Z,-3.47
2023-11-29T09:05:18.097Z,-3.49
2023-11-29T09:08:00.736Z,-3.32
2023-11-29T09:10:43.718Z,-3.35
2023-11-29T09:13:25.994Z,-3.39
2023-11-29T09:16:00.913Z,-3.39
2023-11-29T09:18:39.384Z,-3.38
2023-11-29T09:21:19.223Z,-3.39
2023-11-29T09:24:04.314Z,-3.32
2023-11-29T09:26:42.263Z,-3.35
2023-11-29T09:29:19.162Z,-3.39
2023-11-29T09:31:55.539Z,-3.30
2023-11-29T09:34:28.395Z,-3.28
2023-11-29T09:37:05.621Z,-3.21
2023-11-29T09:39:47.429Z,-3.19
2023-11-29T09:42:33.557Z,-3.22
2023-11-29T09:45:24.666Z,-3.15
2023-11-29T09:48:04.955Z,-3.13
2023-11-29T09:50:50.856Z,-3.10
2023-11-29T09:53:32.169Z,-3.11
2023-11-29T09:56:09.755Z,-3.08
2023-11-29T09:58:59.964Z,-3.08
2023-11-29T10:02:13.316Z,-3.08
2023-11-29T10:05:00.153Z,-3.14
2023-11-29T10:07:34.741Z,-3.10
2023-11-29T10:10:14.287Z,-3.05
2023-11-29T10:12:51.077Z,-3.03
2023-11-29T10:15:33.543Z,-2.99
2023-11-29T10:18:10.344Z,-2.94
2023-11-29T10:23:40.582Z,-2.97
2023-11-29T10:26:17.265Z,-3.01
2023-11-29T10:28:52.800Z,-2.98
2023-11-29T10:31:35.472Z,-2.96
2023-11-29T10:34:12.747Z,-2.92
2023-11-29T10:36:49.934Z,-2.93
2023-11-29T10:39:36.685Z,-2.93
2023-11-29T10:42:18.109Z,-2.96
2023-11-29T10:44:58.644Z,-2.85
2023-11-29T10:47:42.687Z,-2.81
2023-11-29T10:50:24.987Z,-2.78
2023-11-29T10:53:05.569Z,-2.87
2023-11-29T10:55:44.389Z,-2.91
2023-11-29T10:58:27.019Z,-2.83
2023-11-29T11:01:07.111Z,-2.83
2023-11-29T11:03:54.593Z,-2.85
2023-11-29T11:06:38.572Z,-2.91
2023-11-29T11:09:31.726Z,-2.74
2023-11-29T11:12:15.455Z,-2.76
2023-11-29T11:14:56.885Z,-2.75
2023-11-29T11:17:29.532Z,-2.80
2023-11-29T11:20:15.832Z,-2.86
2023-11-29T11:22:57.020Z,-2.85
2023-11-29T11:25:40.963Z,-2.86
2023-11-29T11:28:33.279Z,-2.91
2023-11-29T11:31:22.872Z,-2.84
2023-11-29T11:33:55.374Z,-2.74
2023-11-29T11:36:33.255Z,-2.76
2023-11-29T11:39:14.529Z,-2.73
2023-11-29T11:41:54.968Z,-2.79
2023-11-29T11:44:33.092Z,-2.82
2023-11-29T11:47:14.097Z,-2.81
2023-11-29T11:49:48.979Z,-2.87
2023-11-29T11:52:23.092Z,-2.73
2023-11-29T11:55:01.802Z,-2.75
2023-11-29T11:57:44.856Z,-2.76
2023-11-29T12:00:26.156Z,-2.72
2023-11-29T12:03:12.076Z,-2.75
2023-11-29T12:05:46.409Z,-2.73
2023-11-29T12:08:29.528Z,-2.75
2023-11-29T12:11:06.239Z,-2.68
2023-11-29T12:13:46.929Z,-2.66
2023-11-29T12:16:32.068Z,-2.74
2023-11-29T12:19:04.309Z,-2.71
2023-11-29T12:21:52.877Z,-2.72
2023-11-29T12:24:45.688Z,-2.78
2023-11-29T12:27:33.032Z,-2.74
2023-11-29T12:30:18.843Z,-2.77
2023-11-29T12:32:57.400Z,-2.79
2023-11-29T12:35:33.439Z,-2.76
2023-11-29T12:38:09.104Z,-2.76
2023-11-29T12:40:45.869Z,-2.79
2023-11-29T12:43:24.990Z,-2.78
2023-11-29T12:46:05.425Z,-2.77
2023-11-29T12:48:49.997Z,-2.75
2023-11-29T12:51:29.557Z,-2.73
2023-11-29T12:54:17.173Z,-2.88
2023-11-29T12:57:06.290Z,-2.66
2023-11-29T12:59:40.028Z,-2.69
2023-11-29T13:02:21.595Z,-2.73
2023-11-29T13:04:59.233Z,-2.77
2023-11-29T13:07:44.049Z,-2.71
2023-11-29T13:10:19.803Z,-2.70
2023-11-29T13:13:05.663Z,-2.70
2023-11-29T13:15:45.076Z,-2.66
2023-11-29T13:18:24.569Z,-2.71
2023-11-29T13:21:04.030Z,-2.66
2023-11-29T13:23:46.319Z,-2.59
2023-11-29T13:26:24.152Z,-2.68
2023-11-29T13:29:07.353Z,-2.64
2023-11-29T13:31:43.229Z,-2.74
2023-11-29T13:34:26.053Z,-2.67
2023-11-29T13:37:05.124Z,-2.70
2023-11-29T13:39:46.913Z,-2.65
2023-11-29T13:42:27.639Z,-2.67
2023-11-29T13:45:10.665Z,-2.67
2023-11-29T13:47:48.734Z,-2.69
2023-11-29T13:50:26.473Z,-2.71
2023-11-29T13:53:06.411Z,-2.65
2023-11-29T13:55:43.576Z,-2.70
2023-11-29T13:58:23.673Z,-2.66
2023-11-29T14:01:00.635Z,-2.66
2023-11-29T14:03:41.909Z,-2.58
2023-11-29T14:06:18.991Z,-2.64
2023-11-29T14:08:55.108Z,-2.65
2023-11-29T14:11:40.070Z,-2.56
2023-11-29T14:14:23.113Z,-2.61
2023-11-29T14:16:59.846Z,-2.56
2023-11-29T14:19:32.035Z,-2.62
2023-11-29T14:22:15.724Z,-2.52
2023-11-29T14:24:52.606Z,-2.61
2023-11-29T14:27:44.444Z,-2.52
2023-11-29T14:30:29.746Z,-2.54
2023-11-29T14:33:11.192Z,-2.61
2023-11-29T14:35:47.972Z,-2.45
2023-11-29T14:38:23.241Z,-2.43
2023-11-29T14:41:05.792Z,-2.46
2023-11-29T14:43:45.244Z,-2.55
2023-11-29T14:46:23.480Z,-2.47
2023-11-29T14:48:56.728Z,-2.47
2023-11-29T14:51:41.017Z,-2.45
2023-11-29T14:54:24.798Z,-2.50
2023-11-29T14:57:02.192Z,-2.47
2023-11-29T14:59:44.111Z,-2.46
2023-11-29T15:02:27.423Z,-2.48
2023-11-29T15:05:07.288Z,-2.45
2023-11-29T15:07:44.495Z,-2.38
2023-11-29T15:10:19.511Z,-2.39
2023-11-29T15:13:04.043Z,-2.39
2023-11-29T15:15:42.651Z,-2.42
2023-11-29T15:18:22.201Z,-2.38
2023-11-29T15:20:59.381Z,-2.45
2023-11-29T15:23:39.948Z,-2.37
2023-11-29T15:26:20.366Z,-2.42
2023-11-29T15:29:02.295Z,-2.38
2023-11-29T15:31:44.759Z,-2.47
2023-11-29T15:34:34.596Z,-2.41
2023-11-29T15:37:15.204Z,-2.38
2023-11-29T15:39:55.425Z,-2.40
2023-11-29T15:42:32.259Z,-2.41
2023-11-29T15:45:10.651Z,-2.39
2023-11-29T15:47:47.897Z,-2.38
2023-11-29T15:50:25.238Z,-2.35
2023-11-29T15:53:02.288Z,-2.30
2023-11-29T15:55:43.620Z,-2.31
2023-11-29T15:58:22.333Z,-2.37
2023-11-29T16:01:03.290Z,-2.35
2023-11-29T16:03:53.277Z,-2.33
2023-11-29T16:06:31.117Z,-2.25
2023-11-29T16:09:08.864Z,-2.32
2023-11-29T16:11:46.852Z,-2.30
2023-11-29T16:14:27.564Z,-2.33
2023-11-29T16:17:04.362Z,-2.29
2023-11-29T16:19:51.311Z,-2.27
2023-11-29T16:22:30.721Z,-2.26
2023-11-29T16:25:25.052Z,-2.35
2023-11-29T16:28:05.700Z,-2.24
2023-11-29T16:30:44.115Z,-2.27
2023-11-29T16:33:22.108Z,-2.26
2023-11-29T16:35:58.349Z,-2.20
2023-11-29T16:38:37.238Z,-2.25
2023-11-29T16:41:19.315Z,-2.25
2023-11-29T16:43:59.230Z,-2.12
2023-11-29T16:46:40.219Z,-2.10
2023-11-29T16:49:17.322Z,-2.15
2023-11-29T16:51:57.961Z,-2.12
2023-11-29T16:54:42.192Z,-2.12
2023-11-29T16:57:21.658Z,-2.07
2023-11-29T17:00:02.655Z,-2.14
2023-11-29T17:02:52.333Z,-2.10
2023-11-29T17:05:40.427Z,-2.04
2023-11-29T17:08:19.589Z,-2.07
2023-11-29T17:11:01.270Z,-2.07
2023-11-29T17:13:50.226Z,-2.10
2023-11-29T17:16:32.849Z,-2.03
2023-11-29T17:19:21.092Z,-2.08
2023-11-29T17:21:58.292Z,-2.07
2023-11-29T17:24:38.335Z,-2.05
2023-11-29T17:27:14.603Z,-2.01
2023-11-29T17:29:50.311Z,-2.02
2023-11-29T17:32:29.853Z,-2.01
2023-11-29T17:35:19.178Z,-2.09
2023-11-29T17:37:56.334Z,-1.99
2023-11-29T17:40:35.098Z,-2.03
2023-11-29T17:43:18.323Z,-2.00
2023-11-29T17:46:03.431Z,-2.03
2023-11-29T17:48:41.571Z,-1.98
2023-11-29T17:51:20.256Z,-1.97
2023-11-29T17:53:54.278Z,-1.98
2023-11-29T17:56:36.606Z,-2.06
2023-11-29T17:59:17.785Z,-2.00
2023-11-29T18:02:04.000Z,-1.96
2023-11-29T18:04:46.330Z,-1.95
2023-11-29T18:07:23.146Z,-1.98
2023-11-29T18:09:57.017Z,-2.05
2023-11-29T18:12:33.460Z,-2.06
2023-11-29T18:15:09.670Z,-2.00
2023-11-29T18:17:42.602Z,-1.98
2023-11-29T18:20:21.119Z,-1.99
2023-11-29T18:22:50.997Z,-2.07
2023-11-29T18:25:29.901Z,-2.08
2023-11-29T18:28:04.216Z,-1.93
2023-11-29T18:30:46.022Z,-1.95
2023-11-29T18:33:28.935Z,-1.89
2023-11-29T18:36:04.103Z,-1.91
2023-11-29T18:38:40.632Z,-1.98
2023-11-29T18:41:22.926Z,-1.91
2023-11-29T18:43:57.073Z,-1.96
2023-11-29T18:46:32.256Z,-1.88
2023-11-29T18:49:09.284Z,-1.91
2023-11-29T18:51:44.533Z,-1.96
2023-11-29T18:54:22.359Z,-1.92
2023-11-29T18:57:01.501Z,-1.99
2023-11-29T19:03:07.623Z,-1.89
2023-11-29T19:05:42.597Z,-1.85
2023-11-29T19:08:20.302Z,-1.89
2023-11-29T19:10:59.218Z,-1.89
2023-11-29T19:13:36.010Z,-1.91
2023-11-29T19:16:16.910Z,-1.81
2023-11-29T19:18:52.054Z,-1.77
2023-11-29T19:21:33.494Z,-1.85
2023-11-29T19:24:08.107Z,-1.81
2023-11-29T19:26:42.914Z,-1.77
2023-11-29T19:29:16.042Z,-1.78
2023-11-29T19:31:48.480Z,-1.74
2023-11-29T19:34:21.375Z,-1.74
2023-11-29T19:36:57.475Z,-1.78
2023-11-29T19:39:38.034Z,-1.72
2023-11-29T19:42:16.526Z,-1.71
2023-11-29T19:44:49.439Z,-1.73
2023-11-29T19:47:30.649Z,-1.76
2023-11-29T19:50:02.989Z,-1.72
2023-11-29T19:52:43.726Z,-1.79
2023-11-29T19:55:19.664Z,-1.71
2023-11-29T19:57:53.920Z,-1.81
2023-11-29T20:00:25.027Z,-1.74
2023-11-29T20:02:59.858Z,-1.71
2023-11-29T20:05:34.720Z,-1.74
2023-11-29T20:08:10.674Z,-1.74
2023-11-29T20:10:41.635Z,-1.77
2023-11-29T20:13:18.349Z,-1.78
2023-11-29T20:15:56.486Z,-1.74
2023-11-29T20:18:36.544Z,-1.76
2023-11-29T20:21:09.759Z,-1.66
2023-11-29T20:23:40.497Z,-1.68
2023-11-29T20:26:11.171Z,-1.69
2023-11-29T20:28:43.631Z,-1.74
2023-11-29T20:31:16.272Z,-1.72
2023-11-29T20:33:50.872Z,-1.67
2023-11-29T20:36:24.980Z,-1.72
2023-11-29T20:39:05.601Z,-1.75
2023-11-29T20:41:39.330Z,-1.73
2023-11-29T20:44:11.266Z,-1.62
2023-11-29T20:46:43.986Z,-1.63
2023-11-29T20:49:17.578Z,-1.65
2023-11-29T20:51:46.750Z,-1.64
2023-11-29T20:54:18.127Z,-1.58
2023-11-29T20:56:47.946Z,-1.61
2023-11-29T20:59:19.343Z,-1.56
2023-11-29T21:01:50.928Z,-1.64
2023-11-29T21:04:21.143Z,-1.56
2023-11-29T21:06:50.363Z,-1.55
2023-11-29T21:09:19.660Z,-1.52
2023-11-29T21:11:49.563Z,-1.55
2023-11-29T21:14:18.011Z,-1.55
2023-11-29T21:16:47.016Z,-1.57
2023-11-29T21:19:15.975Z,-1.53
2023-11-29T21:21:45.601Z,-1.52
2023-11-29T21:24:13.872Z,-1.47
2023-11-29T21:26:42.585Z,-1.47
2023-11-29T21:29:11.940Z,-1.44
2023-11-29T21:31:39.924Z,-1.43
2023-11-29T21:34:08.541Z,-1.49
2023-11-29T21:36:38.053Z,-1.49
2023-11-29T21:39:07.350Z,-1.52
2023-11-29T21:41:35.623Z,-1.43
2023-11-29T21:44:04.126Z,-1.50
2023-11-29T21:46:35.078Z,-1.46
2023-11-29T21:49:03.508Z,-1.44
2023-11-29T21:51:34.260Z,-1.61
2023-11-29T21:54:02.267Z,-1.45
2023-11-29T21:56:30.803Z,-1.46
2023-11-29T21:58:58.695Z,-1.40
2023-11-29T22:01:26.700Z,-1.42
2023-11-29T22:03:55.104Z,-1.62
2023-11-29T22:06:27.565Z,-1.40
2023-11-29T22:08:55.841Z,-1.42
2023-11-29T22:11:26.631Z,-1.50
2023-11-29T22:13:54.508Z,-1.45
2023-11-29T22:16:23.665Z,-1.43
2023-11-29T22:18:53.031Z,-1.42
2023-11-29T22:21:25.507Z,-1.34
2023-11-29T22:23:57.349Z,-1.38
2023-11-29T22:26:25.437Z,-1.37
2023-11-29T22:28:57.115Z,-1.44
2023-11-29T22:31:24.902Z,-1.37
2023-11-29T22:33:53.214Z,-1.36
2023-11-29T22:36:21.431Z,-1.51
2023-11-29T22:38:49.751Z,-1.43
2023-11-29T22:41:29.835Z,-1.30
2023-11-29T22:43:58.595Z,-1.29
2023-11-29T22:46:30.714Z,-1.29
2023-11-29T22:48:58.777Z,-1.31
2023-11-29T22:51:28.883Z,-1.31
2023-11-29T22:53:58.225Z,-1.25
2023-11-29T22:56:26.319Z,-1.27
2023-11-29T22:58:54.147Z,-1.30
2023-11-29T23:01:29.278Z,-1.25
2023-11-29T23:03:57.849Z,-1.29
2023-11-29T23:06:26.385Z,-1.22
2023-11-29T23:08:55.542Z,-1.23
2023-11-29T23:11:24.205Z,-1.20
2023-11-29T23:13:53.219Z,-1.18
2023-11-29T23:16:21.439Z,-1.14
2023-11-29T23:18:53.007Z,-1.16
2023-11-29T23:21:21.056Z,-1.13
2023-11-29T23:23:49.637Z,-1.18
2023-11-29T23:26:17.708Z,-1.17
2023-11-29T23:28:45.537Z,-1.23
2023-11-29T23:31:16.776Z,-1.16
2023-11-29T23:33:44.682Z,-1.17
2023-11-29T23:36:12.723Z,-1.18
2023-11-29T23:38:41.004Z,-1.14
2023-11-29T23:41:09.000Z,-1.16
2023-11-29T23:43:36.804Z,-1.18
2023-11-29T23:46:05.036Z,-1.12
2023-11-29T23:48:32.879Z,-1.18
2023-11-29T23:51:00.907Z,-1.18
2023-11-29T23:53:29.225Z,-1.15
2023-11-29T23:55:57.007Z,-1.20
2023-11-29T23:58:24.859Z,-1.13
